Antioch, Texas
Current Conditions -  °F | °C
As of 9:55 AM on Thursday 27 Nov 2014 (Local Time) from KOCH Reporting Station
Clear Clear  
Wind Chill: 54°   Ceiling: Unl
Heat Index: 54°   Visibility: 10mi
Dew Point: 28°   Wind: 6mph
Humidity: 38%   Direction: 30°NNE
Pressure: 30.53"   Gusts: NA
Location:  31.8636°N, 94.3909°W
Report Text: KOCH 271555Z AUTO 03005KT 10SM CLR 12/M02 A3053 RMK AO1
Loading
Personal Weather Stations






























Interactive Weather Map New forecast layout! Learn more

10-Day Weather Forecast

Advertisements
Track Severe Weather on mobile